sensor_id;sensor_type;location;lat;lon;timestamp;pressure;altitude;pressure_sealevel;temperature;humidity
59043;BME280;44826;51.596;5.624;2023-10-13T00:01:57;101110.50;;;16.32;100.00
59043;BME280;44826;51.596;5.624;2023-10-13T00:04:30;101116.63;;;16.33;100.00
59043;BME280;44826;51.596;5.624;2023-10-13T00:06:57;101108.75;;;16.33;100.00
59043;BME280;44826;51.596;5.624;2023-10-13T00:09:23;101102.63;;;16.32;100.00
59043;BME280;44826;51.596;5.624;2023-10-13T00:11:57;101097.38;;;16.32;100.00
59043;BME280;44826;51.596;5.624;2023-10-13T00:14:22;101095.69;;;16.31;100.00
59043;BME280;44826;51.596;5.624;2023-10-13T00:16:55;101087.88;;;16.30;100.00
59043;BME280;44826;51.596;5.624;2023-10-13T00:19:37;101084.47;;;16.28;100.00
59043;BME280;44826;51.596;5.624;2023-10-13T00:22:13;101086.25;;;16.27;100.00
59043;BME280;44826;51.596;5.624;2023-10-13T00:24:43;101086.31;;;16.26;100.00
59043;BME280;44826;51.596;5.624;2023-10-13T00:27:19;101084.47;;;16.28;100.00
59043;BME280;44826;51.596;5.624;2023-10-13T00:30:04;101079.22;;;16.28;100.00
59043;BME280;44826;51.596;5.624;2023-10-13T00:32:58;101072.28;;;16.27;100.00
59043;BME280;44826;51.596;5.624;2023-10-13T00:35:28;101077.53;;;16.27;100.00
59043;BME280;44826;51.596;5.624;2023-10-13T00:38:04;101067.03;;;16.27;100.00
59043;BME280;44826;51.596;5.624;2023-10-13T00:40:39;101064.47;;;16.25;100.00
59043;BME280;44826;51.596;5.624;2023-10-13T00:43:04;101060.97;;;16.24;100.00
59043;BME280;44826;51.596;5.624;2023-10-13T00:45:55;101073.28;;;16.24;100.00
59043;BME280;44826;51.596;5.624;2023-10-13T00:48:36;101066.31;;;16.23;100.00
59043;BME280;44826;51.596;5.624;2023-10-13T00:51:09;101062.84;;;16.22;100.00
59043;BME280;44826;51.596;5.624;2023-10-13T00:53:44;101053.28;;;16.21;100.00
59043;BME280;44826;51.596;5.624;2023-10-13T00:56:12;101053.28;;;16.21;100.00
59043;BME280;44826;51.596;5.624;2023-10-13T00:58:53;101058.53;;;16.21;100.00
59043;BME280;44826;51.596;5.624;2023-10-13T01:01:19;101051.56;;;16.20;100.00
59043;BME280;44826;51.596;5.624;2023-10-13T01:03:54;101045.44;;;16.20;100.00
59043;BME280;44826;51.596;5.624;2023-10-13T01:06:25;101047.16;;;16.21;100.00
59043;BME280;44826;51.596;5.624;2023-10-13T01:09:03;101035.88;;;16.19;100.00
59043;BME280;44826;51.596;5.624;2023-10-13T01:11:46;101037.66;;;16.18;100.00
59043;BME280;44826;51.596;5.624;2023-10-13T01:14:14;101037.66;;;16.18;100.00
59043;BME280;44826;51.596;5.624;2023-10-13T01:16:44;101029.84;;;16.17;100.00
59043;BME280;44826;51.596;5.624;2023-10-13T01:19:10;101025.47;;;16.17;100.00
59043;BME280;44826;51.596;5.624;2023-10-13T01:21:38;101030.72;;;16.17;100.00
59043;BME280;44826;51.596;5.624;2023-10-13T01:24:07;101022.06;;;16.15;100.00
59043;BME280;44826;51.596;5.624;2023-10-13T01:26:34;101015.09;;;16.14;100.00
59043;BME280;44826;51.596;5.624;2023-10-13T01:29:04;101021.19;;;16.15;100.00
59043;BME280;44826;51.596;5.624;2023-10-13T01:31:37;101014.25;;;16.14;100.00
59043;BME280;44826;51.596;5.624;2023-10-13T01:34:02;101012.56;;;16.13;100.00
59043;BME280;44826;51.596;5.624;2023-10-13T01:36:28;101011.69;;;16.12;100.00
59043;BME280;44826;51.596;5.624;2023-10-13T01:39:00;101002.06;;;16.13;100.00
59043;BME280;44826;51.596;5.624;2023-10-13T01:41:26;100995.09;;;16.12;100.00
59043;BME280;44826;51.596;5.624;2023-10-13T01:43:51;100994.25;;;16.11;100.00
59043;BME280;44826;51.596;5.624;2023-10-13T01:46:17;100985.44;;;16.12;100.00
59043;BME280;44826;51.596;5.624;2023-10-13T01:48:44;100976.78;;;16.10;100.00
59043;BME280;44826;51.596;5.624;2023-10-13T01:51:11;100977.66;;;16.11;100.00
59043;BME280;44826;51.596;5.624;2023-10-13T01:53:37;100982.91;;;16.11;100.00
59043;BME280;44826;51.596;5.624;2023-10-13T01:56:07;100975.09;;;16.09;100.00
59043;BME280;44826;51.596;5.624;2023-10-13T01:58:39;100968.13;;;16.08;100.00
59043;BME280;44826;51.596;5.624;2023-10-13T02:01:08;100973.38;;;16.08;100.00
59043;BME280;44826;51.596;5.624;2023-10-13T02:03:34;100967.28;;;16.07;100.00
59043;BME280;44826;51.596;5.624;2023-10-13T02:06:01;100963.81;;;16.07;100.00
59043;BME280;44826;51.596;5.624;2023-10-13T02:08:29;100947.13;;;16.08;100.00
59043;BME280;44826;51.596;5.624;2023-10-13T02:10:55;100941.06;;;16.07;100.00
59043;BME280;44826;51.596;5.624;2023-10-13T02:13:22;100944.50;;;16.08;100.00
59043;BME280;44826;51.596;5.624;2023-10-13T02:15:49;100935.81;;;16.07;100.00
59043;BME280;44826;51.596;5.624;2023-10-13T02:18:19;100930.59;;;16.06;100.00
59043;BME280;44826;51.596;5.624;2023-10-13T02:20:55;100935.84;;;16.06;100.00
59043;BME280;44826;51.596;5.624;2023-10-13T02:23:25;100939.34;;;16.06;100.00
59043;BME280;44826;51.596;5.624;2023-10-13T02:25:54;100939.44;;;16.05;100.00
59043;BME280;44826;51.596;5.624;2023-10-13T02:28:29;100943.72;;;16.06;100.00
59043;BME280;44826;51.596;5.624;2023-10-13T02:31:01;100939.34;;;16.06;100.00
59043;BME280;44826;51.596;5.624;2023-10-13T02:33:28;100936.81;;;16.05;100.00
59043;BME280;44826;51.596;5.624;2023-10-13T02:36:02;100936.81;;;16.05;100.00
59043;BME280;44826;51.596;5.624;2023-10-13T02:38:32;100939.44;;;16.05;100.00
59043;BME280;44826;51.596;5.624;2023-10-13T02:41:18;100926.31;;;16.05;100.00
59043;BME280;44826;51.596;5.624;2023-10-13T02:43:50;100915.81;;;16.05;100.00
59043;BME280;44826;51.596;5.624;2023-10-13T02:46:16;100912.22;;;16.06;100.00
59043;BME280;44826;51.596;5.624;2023-10-13T02:48:41;100904.38;;;16.06;100.00
59043;BME280;44826;51.596;5.624;2023-10-13T02:51:11;100902.59;;;16.06;100.00
59043;BME280;44826;51.596;5.624;2023-10-13T02:53:44;100892.94;;;16.07;100.00
59043;BME280;44826;51.596;5.624;2023-10-13T02:56:13;100892.09;;;16.06;100.00
59043;BME280;44826;51.596;5.624;2023-10-13T02:58:40;100888.63;;;16.06;100.00
59043;BME280;44826;51.596;5.624;2023-10-13T03:01:09;100875.50;;;16.06;100.00
59043;BME280;44826;51.596;5.624;2023-10-13T03:03:45;100867.63;;;16.06;100.00
59043;BME280;44826;51.596;5.624;2023-10-13T03:06:13;100865.00;;;16.06;100.00
59043;BME280;44826;51.596;5.624;2023-10-13T03:08:38;100856.22;;;16.07;100.00
59043;BME280;44826;51.596;5.624;2023-10-13T03:11:04;100846.63;;;16.06;100.00
59043;BME280;44826;51.596;5.624;2023-10-13T03:13:31;100850.97;;;16.07;100.00
59043;BME280;44826;51.596;5.624;2023-10-13T03:15:58;100844.00;;;16.06;100.00
59043;BME280;44826;51.596;5.624;2023-10-13T03:18:24;100837.84;;;16.07;100.00
59043;BME280;44826;51.596;5.624;2023-10-13T03:20:50;100828.19;;;16.07;100.00
59043;BME280;44826;51.596;5.624;2023-10-13T03:23:22;100822.94;;;16.07;100.00
59043;BME280;44826;51.596;5.624;2023-10-13T03:25:49;100820.34;;;16.07;100.00
59043;BME280;44826;51.596;5.624;2023-10-13T03:28:20;100816.78;;;16.08;100.00
59043;BME280;44826;51.596;5.624;2023-10-13T03:30:49;100813.25;;;16.10;100.00
59043;BME280;44826;51.596;5.624;2023-10-13T03:33:18;100808.00;;;16.10;100.00
59043;BME280;44826;51.596;5.624;2023-10-13T03:35:51;100804.50;;;16.09;100.00
59043;BME280;44826;51.596;5.624;2023-10-13T03:38:20;100801.88;;;16.09;100.00
59043;BME280;44826;51.596;5.624;2023-10-13T03:40:47;100795.69;;;16.10;100.00
59043;BME280;44826;51.596;5.624;2023-10-13T03:43:23;100783.44;;;16.11;100.00
59043;BME280;44826;51.596;5.624;2023-10-13T03:45:50;100779.03;;;16.11;100.00
59043;BME280;44826;51.596;5.624;2023-10-13T03:48:33;100766.78;;;16.12;100.00
59043;BME280;44826;51.596;5.624;2023-10-13T03:51:05;100757.06;;;16.14;100.00
59043;BME280;44826;51.596;5.624;2023-10-13T03:53:41;100770.16;;;16.14;100.00
59043;BME280;44826;51.596;5.624;2023-10-13T03:56:19;100757.88;;;16.14;100.00
59043;BME280;44826;51.596;5.624;2023-10-13T03:59:12;100759.59;;;16.15;100.00
59043;BME280;44826;51.596;5.624;2023-10-13T04:01:40;100755.16;;;16.16;100.00
59043;BME280;44826;51.596;5.624;2023-10-13T04:04:09;100757.72;;;16.17;100.00
59043;BME280;44826;51.596;5.624;2023-10-13T04:06:43;100748.94;;;16.18;100.00
59043;BME280;44826;51.596;5.624;2023-10-13T04:09:14;100733.19;;;16.18;100.00
59043;BME280;44826;51.596;5.624;2023-10-13T04:11:58;100731.34;;;16.20;100.00
59043;BME280;44826;51.596;5.624;2023-10-13T04:14:37;100718.22;;;16.20;100.00
59043;BME280;44826;51.596;5.624;2023-10-13T04:17:21;100713.75;;;16.22;100.00
59043;BME280;44826;51.596;5.624;2023-10-13T04:19:54;100701.34;;;16.24;100.00
59043;BME280;44826;51.596;5.624;2023-10-13T04:22:39;100705.69;;;16.26;100.00
59043;BME280;44826;51.596;5.624;2023-10-13T04:25:23;100702.13;;;16.27;100.00
59043;BME280;44826;51.596;5.624;2023-10-13T04:28:11;100690.69;;;16.28;100.00
59043;BME280;44826;51.596;5.624;2023-10-13T04:30:43;100703.75;;;16.29;100.00
59043;BME280;44826;51.596;5.624;2023-10-13T04:33:25;100701.88;;;16.31;100.00
59043;BME280;44826;51.596;5.624;2023-10-13T04:38:50;100693.84;;;16.34;100.00
59043;BME280;44826;51.596;5.624;2023-10-13T04:41:26;100692.84;;;16.37;100.00
59043;BME280;44826;51.596;5.624;2023-10-13T04:44:00;100694.56;;;16.38;100.00
59043;BME280;44826;51.596;5.624;2023-10-13T04:46:48;100699.72;;;16.39;100.00
59043;BME280;44826;51.596;5.624;2023-10-13T04:49:13;100698.69;;;16.42;100.00
59043;BME280;44826;51.596;5.624;2023-10-13T04:51:59;100684.75;;;16.42;100.00
59043;BME280;44826;51.596;5.624;2023-10-13T04:54:28;100680.25;;;16.44;100.00
59043;BME280;44826;51.596;5.624;2023-10-13T04:57:21;100688.03;;;16.45;100.00
59043;BME280;44826;51.596;5.624;2023-10-13T05:00:02;100679.22;;;16.46;100.00
59043;BME280;44826;51.596;5.624;2023-10-13T05:02:29;100673.97;;;16.46;100.00
59043;BME280;44826;51.596;5.624;2023-10-13T05:07:58;100671.19;;;16.49;100.00
59043;BME280;44826;51.596;5.624;2023-10-13T05:10:41;100676.34;;;16.51;100.00
59043;BME280;44826;51.596;5.624;2023-10-13T05:13:25;100672.63;;;16.55;100.00
59043;BME280;44826;51.596;5.624;2023-10-13T05:16:09;100665.63;;;16.56;100.00
59043;BME280;44826;51.596;5.624;2023-10-13T05:18:53;100665.53;;;16.57;100.00
59043;BME280;44826;51.596;5.624;2023-10-13T05:21:37;100656.72;;;16.58;100.00
59043;BME280;44826;51.596;5.624;2023-10-13T05:24:21;100657.56;;;16.59;100.00
59043;BME280;44826;51.596;5.624;2023-10-13T05:27:04;100657.56;;;16.59;100.00
59043;BME280;44826;51.596;5.624;2023-10-13T05:29:49;100616.31;;;16.61;100.00
59043;BME280;44826;51.596;5.624;2023-10-13T05:32:33;100594.38;;;16.62;100.00
59043;BME280;44826;51.596;5.624;2023-10-13T05:35:20;100615.38;;;16.62;100.00
59043;BME280;44826;51.596;5.624;2023-10-13T05:38:04;100594.38;;;16.62;100.00
59043;BME280;44826;51.596;5.624;2023-10-13T05:40:57;100604.88;;;16.62;100.00
59043;BME280;44826;51.596;5.624;2023-10-13T05:43:42;100609.19;;;16.63;100.00
59043;BME280;44826;51.596;5.624;2023-10-13T05:46:26;100608.25;;;16.64;100.00
59043;BME280;44826;51.596;5.624;2023-10-13T05:48:54;100608.25;;;16.64;100.00
59043;BME280;44826;51.596;5.624;2023-10-13T05:51:23;100604.81;;;16.63;100.00
59043;BME280;44826;51.596;5.624;2023-10-13T05:53:57;100605.72;;;16.62;100.00
59043;BME280;44826;51.596;5.624;2023-10-13T05:56:38;100595.13;;;16.64;100.00
59043;BME280;44826;51.596;5.624;2023-10-13T05:59:22;100597.75;;;16.64;100.00
59043;BME280;44826;51.596;5.624;2023-10-13T06:02:06;100598.63;;;16.64;100.00
59043;BME280;44826;51.596;5.624;2023-10-13T06:04:50;100601.25;;;16.64;100.00
59043;BME280;44826;51.596;5.624;2023-10-13T06:07:34;100597.75;;;16.64;100.00
59043;BME280;44826;51.596;5.624;2023-10-13T06:10:18;100600.28;;;16.65;100.00
59043;BME280;44826;51.596;5.624;2023-10-13T06:13:02;100602.91;;;16.65;100.00
59043;BME280;44826;51.596;5.624;2023-10-13T06:15:46;100601.16;;;16.66;100.00
59043;BME280;44826;51.596;5.624;2023-10-13T06:18:30;100601.16;;;16.66;100.00
59043;BME280;44826;51.596;5.624;2023-10-13T06:21:14;100590.66;;;16.66;100.00
59043;BME280;44826;51.596;5.624;2023-10-13T06:24:09;100597.59;;;16.67;100.00
59043;BME280;44826;51.596;5.624;2023-10-13T06:26:52;100595.91;;;16.66;100.00
59043;BME280;44826;51.596;5.624;2023-10-13T06:29:36;100588.94;;;16.65;100.00
59043;BME280;44826;51.596;5.624;2023-10-13T06:32:02;100594.97;;;16.67;100.00
59043;BME280;44826;51.596;5.624;2023-10-13T06:34:35;100595.03;;;16.65;100.00
59043;BME280;44826;51.596;5.624;2023-10-13T06:37:10;100591.47;;;16.66;100.00
59043;BME280;44826;51.596;5.624;2023-10-13T06:39:52;100589.72;;;16.67;100.00
59043;BME280;44826;51.596;5.624;2023-10-13T06:42:18;100582.66;;;16.67;100.00
59043;BME280;44826;51.596;5.624;2023-10-13T06:44:45;100583.53;;;16.68;100.00
59043;BME280;44826;51.596;5.624;2023-10-13T06:47:11;100583.53;;;16.68;100.00
59043;BME280;44826;51.596;5.624;2023-10-13T06:49:38;100575.66;;;16.68;100.00
59043;BME280;44826;51.596;5.624;2023-10-13T06:52:08;100575.66;;;16.68;100.00
59043;BME280;44826;51.596;5.624;2023-10-13T06:54:33;100565.13;;;16.68;100.00
59043;BME280;44826;51.596;5.624;2023-10-13T06:57:00;100568.59;;;16.68;100.00
59043;BME280;44826;51.596;5.624;2023-10-13T06:59:28;100564.22;;;16.69;100.00
59043;BME280;44826;51.596;5.624;2023-10-13T07:01:58;100563.28;;;16.70;100.00
59043;BME280;44826;51.596;5.624;2023-10-13T07:04:28;100550.97;;;16.71;100.00
59043;BME280;44826;51.596;5.624;2023-10-13T07:06:54;100557.09;;;16.71;100.00
59043;BME280;44826;51.596;5.624;2023-10-13T07:09:20;100548.28;;;16.72;100.00
59043;BME280;44826;51.596;5.624;2023-10-13T07:12:04;100542.00;;;16.75;100.00
59043;BME280;44826;51.596;5.624;2023-10-13T07:14:32;100542.00;;;16.75;100.00
59043;BME280;44826;51.596;5.624;2023-10-13T07:17:02;100533.09;;;16.77;100.00
59043;BME280;44826;51.596;5.624;2023-10-13T07:19:29;100528.75;;;16.76;100.00
59043;BME280;44826;51.596;5.624;2023-10-13T07:21:58;100528.69;;;16.78;100.00
59043;BME280;44826;51.596;5.624;2023-10-13T07:24:27;100514.63;;;16.79;100.00
59043;BME280;44826;51.596;5.624;2023-10-13T07:27:05;100526.72;;;16.81;100.00
59043;BME280;44826;51.596;5.624;2023-10-13T07:29:31;100516.13;;;16.83;100.00
59043;BME280;44826;51.596;5.624;2023-10-13T07:32:00;100505.53;;;16.84;100.00
59043;BME280;44826;51.596;5.624;2023-10-13T07:34:28;100494.00;;;16.87;100.00
59043;BME280;44826;51.596;5.624;2023-10-13T07:36:57;100497.38;;;16.89;100.00
59043;BME280;44826;51.596;5.624;2023-10-13T07:39:29;100502.47;;;16.92;100.00
59043;BME280;44826;51.596;5.624;2023-10-13T07:41:59;100497.13;;;16.94;100.00
59043;BME280;44826;51.596;5.624;2023-10-13T07:44:35;100503.91;;;16.98;100.00
59043;BME280;44826;51.596;5.624;2023-10-13T07:47:02;100512.56;;;17.00;100.00
59043;BME280;44826;51.596;5.624;2023-10-13T07:49:35;100515.78;;;17.05;100.00
59043;BME280;44826;51.596;5.624;2023-10-13T07:52:11;100501.50;;;17.09;100.00
59043;BME280;44826;51.596;5.624;2023-10-13T07:54:46;100501.25;;;17.14;100.00
59043;BME280;44826;51.596;5.624;2023-10-13T07:57:17;100509.91;;;17.16;100.00
59043;BME280;44826;51.596;5.624;2023-10-13T07:59:42;100506.91;;;17.22;100.00
59043;BME280;44826;51.596;5.624;2023-10-13T08:02:17;100498.72;;;17.27;100.00
59043;BME280;44826;51.596;5.624;2023-10-13T08:05:09;100487.97;;;17.32;100.00
59043;BME280;44826;51.596;5.624;2023-10-13T08:07:34;100479.88;;;17.35;100.00
59043;BME280;44826;51.596;5.624;2023-10-13T08:10:05;100473.50;;;17.39;100.00
59043;BME280;44826;51.596;5.624;2023-10-13T08:12:34;100482.88;;;17.43;100.00
59043;BME280;44826;51.596;5.624;2023-10-13T08:15:02;100473.97;;;17.45;100.00
59043;BME280;44826;51.596;5.624;2023-10-13T08:17:47;100488.50;;;17.51;100.00
59043;BME280;44826;51.596;5.624;2023-10-13T08:20:12;100494.47;;;17.55;100.00
59043;BME280;44826;51.596;5.624;2023-10-13T08:22:38;100480.91;;;17.61;100.00
59043;BME280;44826;51.596;5.624;2023-10-13T08:25:04;100467.56;;;17.64;100.00
59043;BME280;44826;51.596;5.624;2023-10-13T08:27:48;100472.47;;;17.70;100.00
59043;BME280;44826;51.596;5.624;2023-10-13T08:30:33;100476.41;;;17.78;100.00
59043;BME280;44826;51.596;5.624;2023-10-13T08:33:07;100467.31;;;17.83;100.00
59043;BME280;44826;51.596;5.624;2023-10-13T08:35:49;100492.38;;;17.89;100.00
59043;BME280;44826;51.596;5.624;2023-10-13T08:38:33;100491.97;;;17.95;100.00
59043;BME280;44826;51.596;5.624;2023-10-13T08:41:15;100482.03;;;18.00;100.00
59043;BME280;44826;51.596;5.624;2023-10-13T08:43:44;100476.59;;;18.03;100.00
59043;BME280;44826;51.596;5.624;2023-10-13T08:46:15;100462.19;;;18.09;100.00
59043;BME280;44826;51.596;5.624;2023-10-13T08:48:54;100466.22;;;18.15;100.00
59043;BME280;44826;51.596;5.624;2023-10-13T08:51:32;100462.25;;;18.22;100.00
59043;BME280;44826;51.596;5.624;2023-10-13T08:54:11;100469.97;;;18.25;100.00
59043;BME280;44826;51.596;5.624;2023-10-13T08:56:45;100453.75;;;18.31;100.00
59043;BME280;44826;51.596;5.624;2023-10-13T08:59:22;100462.53;;;18.32;100.00
59043;BME280;44826;51.596;5.624;2023-10-13T09:01:49;100447.56;;;18.32;100.00
59043;BME280;44826;51.596;5.624;2023-10-13T09:04:25;100449.06;;;18.37;100.00
59043;BME280;44826;51.596;5.624;2023-10-13T09:07:01;100461.91;;;18.41;100.00
59043;BME280;44826;51.596;5.624;2023-10-13T09:09:27;100451.19;;;18.44;100.00
59043;BME280;44826;51.596;5.624;2023-10-13T09:11:59;100438.66;;;18.48;100.00
59043;BME280;44826;51.596;5.624;2023-10-13T09:14:36;100440.25;;;18.50;100.00
59043;BME280;44826;51.596;5.624;2023-10-13T09:17:05;100441.84;;;18.53;100.00
59043;BME280;44826;51.596;5.624;2023-10-13T09:19:53;100432.03;;;18.55;100.00
59043;BME280;44826;51.596;5.624;2023-10-13T09:22:26;100435.41;;;18.57;100.00
59043;BME280;44826;51.596;5.624;2023-10-13T09:25:01;100447.66;;;18.58;100.00
59043;BME280;44826;51.596;5.624;2023-10-13T09:27:29;100447.53;;;18.60;100.00
59043;BME280;44826;51.596;5.624;2023-10-13T09:29:56;100436.16;;;18.59;99.88
59043;BME280;44826;51.596;5.624;2023-10-13T09:32:21;100440.50;;;18.60;99.31
59043;BME280;44826;51.596;5.624;2023-10-13T09:34:47;100431.66;;;18.61;99.18
59043;BME280;44826;51.596;5.624;2023-10-13T09:37:15;100437.63;;;18.63;99.42
59043;BME280;44826;51.596;5.624;2023-10-13T09:39:46;100445.34;;;18.66;98.07
59043;BME280;44826;51.596;5.624;2023-10-13T09:42:13;100435.47;;;18.70;97.49
59043;BME280;44826;51.596;5.624;2023-10-13T09:44:41;100440.50;;;18.73;96.81
59043;BME280;44826;51.596;5.624;2023-10-13T09:47:20;100431.34;;;18.79;97.92
59043;BME280;44826;51.596;5.624;2023-10-13T09:49:51;100427.56;;;18.83;97.34
59043;BME280;44826;51.596;5.624;2023-10-13T09:52:23;100438.00;;;18.85;95.21
59043;BME280;44826;51.596;5.624;2023-10-13T09:55:26;100427.03;;;18.91;97.15
59043;BME280;44826;51.596;5.624;2023-10-13T09:58:13;100431.28;;;18.93;97.98
59043;BME280;44826;51.596;5.624;2023-10-13T10:00:48;100418.00;;;18.95;95.43
59043;BME280;44826;51.596;5.624;2023-10-13T10:03:22;100416.00;;;18.99;93.04
59043;BME280;44826;51.596;5.624;2023-10-13T10:06:02;100412.13;;;19.04;93.12
59043;BME280;44826;51.596;5.624;2023-10-13T10:08:50;100410.00;;;19.09;91.97
59043;BME280;44826;51.596;5.624;2023-10-13T10:11:36;100408.72;;;19.15;93.80
59043;BME280;44826;51.596;5.624;2023-10-13T10:17:06;100410.22;;;19.19;92.88
59043;BME280;44826;51.596;5.624;2023-10-13T10:20:00;100400.53;;;19.20;94.34
59043;BME280;44826;51.596;5.624;2023-10-13T10:22:32;100391.97;;;19.16;91.99
59043;BME280;44826;51.596;5.624;2023-10-13T10:25:04;100394.72;;;19.15;91.41
59043;BME280;44826;51.596;5.624;2023-10-13T10:27:55;100391.44;;;19.11;92.23
59043;BME280;44826;51.596;5.624;2023-10-13T10:32:54;100381.75;;;19.11;90.87
59043;BME280;44826;51.596;5.624;2023-10-13T10:35:24;100378.16;;;19.13;89.93
59043;BME280;44826;51.596;5.624;2023-10-13T10:37:56;100370.13;;;19.14;89.68
59043;BME280;44826;51.596;5.624;2023-10-13T10:40:52;100364.63;;;19.17;89.71
59043;BME280;44826;51.596;5.624;2023-10-13T10:46:07;100365.06;;;19.24;89.06
59043;BME280;44826;51.596;5.624;2023-10-13T10:48:33;100361.38;;;19.26;88.30
59043;BME280;44826;51.596;5.624;2023-10-13T10:51:00;100357.47;;;19.32;87.88
59043;BME280;44826;51.596;5.624;2023-10-13T10:53:33;100365.03;;;19.37;86.95
59043;BME280;44826;51.596;5.624;2023-10-13T10:56:06;100369.91;;;19.43;86.71
59043;BME280;44826;51.596;5.624;2023-10-13T10:58:43;100366.72;;;19.51;84.89
59043;BME280;44826;51.596;5.624;2023-10-13T11:01:11;100347.06;;;19.55;84.62
59043;BME280;44826;51.596;5.624;2023-10-13T11:03:38;100355.47;;;19.60;83.17
59043;BME280;44826;51.596;5.624;2023-10-13T11:06:11;100359.25;;;19.69;83.29
59043;BME280;44826;51.596;5.624;2023-10-13T11:08:41;100346.38;;;19.77;80.65
59043;BME280;44826;51.596;5.624;2023-10-13T11:11:09;100344.84;;;19.86;81.28
59043;BME280;44826;51.596;5.624;2023-10-13T11:13:43;100359.22;;;19.95;81.10
59043;BME280;44826;51.596;5.624;2023-10-13T11:16:21;100354.19;;;20.03;80.00
59043;BME280;44826;51.596;5.624;2023-10-13T11:19:00;100337.78;;;20.11;81.89
59043;BME280;44826;51.596;5.624;2023-10-13T11:21:29;100347.03;;;20.16;81.15
59043;BME280;44826;51.596;5.624;2023-10-13T11:23:56;100325.69;;;20.20;81.25
59043;BME280;44826;51.596;5.624;2023-10-13T11:26:33;100328.22;;;20.21;81.25
59043;BME280;44826;51.596;5.624;2023-10-13T11:28:58;100334.34;;;20.22;79.77
59043;BME280;44826;51.596;5.624;2023-10-13T11:31:23;100321.03;;;20.23;78.72
59043;BME280;44826;51.596;5.624;2023-10-13T11:33:49;100313.72;;;20.27;79.18
59043;BME280;44826;51.596;5.624;2023-10-13T11:36:15;100309.91;;;20.31;79.89
59043;BME280;44826;51.596;5.624;2023-10-13T11:38:47;100301.72;;;20.34;79.08
59043;BME280;44826;51.596;5.624;2023-10-13T11:41:13;100297.88;;;20.38;78.82
59043;BME280;44826;51.596;5.624;2023-10-13T11:46:10;100277.03;;;20.46;78.25
59043;BME280;44826;51.596;5.624;2023-10-13T11:48:45;100287.84;;;20.55;79.57
59043;BME280;44826;51.596;5.624;2023-10-13T11:51:13;100270.91;;;20.57;77.42
59043;BME280;44826;51.596;5.624;2023-10-13T11:53:51;100275.94;;;20.60;77.62
59043;BME280;44826;51.596;5.624;2023-10-13T11:56:18;100269.59;;;20.63;75.49
59043;BME280;44826;51.596;5.624;2023-10-13T11:58:46;100265.88;;;20.66;76.31
59043;BME280;44826;51.596;5.624;2023-10-13T12:01:12;100268.13;;;20.70;75.66
59043;BME280;44826;51.596;5.624;2023-10-13T12:03:43;100268.88;;;20.72;74.47
59043;BME280;44826;51.596;5.624;2023-10-13T12:06:28;100257.13;;;20.76;74.47
59043;BME280;44826;51.596;5.624;2023-10-13T12:09:12;100260.28;;;20.82;73.51
59043;BME280;44826;51.596;5.624;2023-10-13T12:11:38;100241.50;;;20.85;74.53
59043;BME280;44826;51.596;5.624;2023-10-13T12:14:14;100249.91;;;20.90;74.78
59043;BME280;44826;51.596;5.624;2023-10-13T12:16:47;100238.13;;;20.94;73.22
59043;BME280;44826;51.596;5.624;2023-10-13T12:19:22;100243.78;;;21.01;73.66
59043;BME280;44826;51.596;5.624;2023-10-13T12:21:54;100238.97;;;21.06;73.07
59043;BME280;44826;51.596;5.624;2023-10-13T12:24:24;100242.06;;;21.11;72.48
59043;BME280;44826;51.596;5.624;2023-10-13T12:27:08;100237.97;;;21.18;72.13
59043;BME280;44826;51.596;5.624;2023-10-13T12:29:52;100250.59;;;21.26;73.08
59043;BME280;44826;51.596;5.624;2023-10-13T12:32:21;100237.94;;;21.30;72.10
59043;BME280;44826;51.596;5.624;2023-10-13T12:34:56;100236.03;;;21.32;71.73
59043;BME280;44826;51.596;5.624;2023-10-13T12:37:26;100242.88;;;21.34;72.06
59043;BME280;44826;51.596;5.624;2023-10-13T12:40:01;100238.56;;;21.33;70.70
59043;BME280;44826;51.596;5.624;2023-10-13T12:42:45;100243.72;;;21.35;70.26
59043;BME280;44826;51.596;5.624;2023-10-13T12:45:29;100235.78;;;21.35;71.09
59043;BME280;44826;51.596;5.624;2023-10-13T12:48:13;100233.94;;;21.35;69.94
59043;BME280;44826;51.596;5.624;2023-10-13T12:51:00;100231.19;;;21.37;70.74
59043;BME280;44826;51.596;5.624;2023-10-13T12:53:44;100232.75;;;21.40;70.01
59043;BME280;44826;51.596;5.624;2023-10-13T12:56:10;100222.88;;;21.42;70.17
59043;BME280;44826;51.596;5.624;2023-10-13T12:58:36;100227.06;;;21.44;69.97
59043;BME280;44826;51.596;5.624;2023-10-13T13:01:02;100227.69;;;21.48;68.84
59043;BME280;44826;51.596;5.624;2023-10-13T13:03:31;100227.69;;;21.48;68.58
59043;BME280;44826;51.596;5.624;2023-10-13T13:05:58;100229.38;;;21.49;69.68
59043;BME280;44826;51.596;5.624;2023-10-13T13:08:23;100218.78;;;21.49;68.71
59043;BME280;44826;51.596;5.624;2023-10-13T13:10:49;100225.75;;;21.50;68.45
59043;BME280;44826;51.596;5.624;2023-10-13T13:13:14;100231.06;;;21.50;68.01
59043;BME280;44826;51.596;5.624;2023-10-13T13:15:42;100233.69;;;21.50;68.37
59043;BME280;44826;51.596;5.624;2023-10-13T13:18:07;100224.91;;;21.49;67.98
59043;BME280;44826;51.596;5.624;2023-10-13T13:20:37;100215.16;;;21.50;67.75
59043;BME280;44826;51.596;5.624;2023-10-13T13:23:05;100219.50;;;21.51;67.54
59043;BME280;44826;51.596;5.624;2023-10-13T13:25:30;100214.91;;;21.53;67.54
59043;BME280;44826;51.596;5.624;2023-10-13T13:27:57;100221.19;;;21.52;66.75
59043;BME280;44826;51.596;5.624;2023-10-13T13:30:24;100213.25;;;21.52;66.51
59043;BME280;44826;51.596;5.624;2023-10-13T13:32:55;100215.59;;;21.55;65.94